Kernersville, NC (27284)

5:04 PM EDT on July 28, 2015 (GMT -0400)
Off Hastings Hill Rd. | | Change Station
CLOSE
Current Station
Personal Weather Station
Location: Kernersville, NC
Elevation: 928 ft
Nearby Weather Stations

Elev 928 ft 36.11 °N, 80.11 °W | Updated 11 seconds ago

Overcast
Overcast
85.2 °F
Feels Like 95 °F
N
1.0
Wind Variable Wind from ESE
Gusts 9.0 mph

Today
High -- | Low -- °F
--% Chance of Precip.
Yesterday
High -- | Low -- °F
Precip. -- in
6:24 AM 8:29 PM
Waxing Gibbous, 91% visible
Pressure 29.97 in
Visibility 10.0 miles
Clouds Scattered Clouds 3900 ft
Mostly Cloudy 4600 ft
Overcast 7000 ft
Heat Index 95 °F
Dew Point 76 °F
Humidity 74%
Rainfall 0.05 in
Snow Depth Not available.
UV 2 out of 12
Pollen 2.80 out of 12
Air Quality Not available.
Flu Activity Not available.
SPECI KINT 282101Z 16007KT 10SM VCTS SCT039 BKN046 OVC070 30/22 A2997 RMK AO2 LTG DSNT N-E T03000217

More Conditions Fewer Conditions

Pressure 29.97 in
Visibility 10.0 miles
Clouds Scattered Clouds 3900 ft
Mostly Cloudy 4600 ft
Overcast 7000 ft
Heat Index 95 °F
Dew Point 76 °F
Humidity 74%
Rainfall 0.05 in
Snow Depth Not available.
UV 2 out of 12
Pollen 2.80 out of 12
Air Quality Not available.
Flu Activity Not available.
SPECI KINT 282101Z 16007KT 10SM VCTS SCT039 BKN046 OVC070 30/22 A2997 RMK AO2 LTG DSNT N-E T03000217

More Conditions Fewer Conditions

10-Day Weather Forecast

×

Almanac

Astronomy

Jul. 28, 2015 Rise Set
Actual Time
Civil Twilight
Nautical Twilight
Astronomical Twilight
Moon
Length of Visible Light
Length of Day
Tomorrow will be .
, % of the Moon is Illuminated

Today's Extremes

State Highs State Lows

Community

WunderPhotos

Upload Photos

1,841,942 photos uploaded!

WunderBlogs® & News

Nearby

Air Quality

  Air Quality AQ Index Pollutant
Not available.

Snow Depth

Station Depth Elevation

Earthquake Activity

City Distance Mag. Time & Date
Minimum magnitude displayed is 2.5.

Coastal Water Temperatures

Place Temperature

Stations

Nearby Weather Stations

Station Location Temp. Windchill Dew Point Humidity Wind Precip. Elev Updated Type